sensor_id;sensor_type;location;lat;lon;timestamp;temperature;humidity
1878;DHT22;939;51.426;6.972;2023-06-14T00:10:27;20.20;37.00
1878;DHT22;939;51.426;6.972;2023-06-14T00:12:56;20.20;37.20
1878;DHT22;939;51.426;6.972;2023-06-14T00:15:27;20.20;36.50
1878;DHT22;939;51.426;6.972;2023-06-14T00:17:56;20.20;37.90
1878;DHT22;939;51.426;6.972;2023-06-14T00:20:32;20.20;37.60
1878;DHT22;939;51.426;6.972;2023-06-14T00:22:59;20.10;38.80
1878;DHT22;939;51.426;6.972;2023-06-14T00:25:28;20.10;38.10
1878;DHT22;939;51.426;6.972;2023-06-14T00:27:56;20.10;37.30
1878;DHT22;939;51.426;6.972;2023-06-14T00:30:24;20.10;37.40
1878;DHT22;939;51.426;6.972;2023-06-14T00:32:51;20.20;38.20
1878;DHT22;939;51.426;6.972;2023-06-14T00:35:18;20.10;38.50
1878;DHT22;939;51.426;6.972;2023-06-14T00:37:45;20.10;38.20
1878;DHT22;939;51.426;6.972;2023-06-14T00:40:14;20.00;39.70
1878;DHT22;939;51.426;6.972;2023-06-14T00:42:42;20.00;39.40
1878;DHT22;939;51.426;6.972;2023-06-14T00:45:10;19.90;40.40
1878;DHT22;939;51.426;6.972;2023-06-14T00:47:37;19.90;41.00
1878;DHT22;939;51.426;6.972;2023-06-14T00:50:07;19.90;41.50
1878;DHT22;939;51.426;6.972;2023-06-14T00:52:34;19.90;42.60
1878;DHT22;939;51.426;6.972;2023-06-14T00:55:02;19.80;41.10
1878;DHT22;939;51.426;6.972;2023-06-14T00:57:31;19.90;41.30
1878;DHT22;939;51.426;6.972;2023-06-14T00:59:59;19.80;41.20
1878;DHT22;939;51.426;6.972;2023-06-14T01:02:27;19.80;41.90
1878;DHT22;939;51.426;6.972;2023-06-14T01:04:55;19.80;41.40
1878;DHT22;939;51.426;6.972;2023-06-14T01:07:35;19.70;41.80
1878;DHT22;939;51.426;6.972;2023-06-14T01:10:15;19.70;42.40
1878;DHT22;939;51.426;6.972;2023-06-14T01:12:54;19.70;41.80
1878;DHT22;939;51.426;6.972;2023-06-14T01:15:25;19.70;41.90
1878;DHT22;939;51.426;6.972;2023-06-14T01:17:54;19.70;41.30
1878;DHT22;939;51.426;6.972;2023-06-14T01:20:28;19.60;42.00
1878;DHT22;939;51.426;6.972;2023-06-14T01:22:58;19.60;41.80
1878;DHT22;939;51.426;6.972;2023-06-14T01:25:25;19.60;41.00
1878;DHT22;939;51.426;6.972;2023-06-14T01:27:56;19.60;41.80
1878;DHT22;939;51.426;6.972;2023-06-14T01:30:25;19.60;40.80
1878;DHT22;939;51.426;6.972;2023-06-14T01:32:54;19.60;41.00
1878;DHT22;939;51.426;6.972;2023-06-14T01:35:22;19.60;41.50
1878;DHT22;939;51.426;6.972;2023-06-14T01:37:50;19.60;41.10
1878;DHT22;939;51.426;6.972;2023-06-14T01:40:19;19.60;41.00
1878;DHT22;939;51.426;6.972;2023-06-14T01:42:50;19.60;41.90
1878;DHT22;939;51.426;6.972;2023-06-14T01:45:18;19.60;41.60
1878;DHT22;939;51.426;6.972;2023-06-14T01:47:47;19.60;41.40
1878;DHT22;939;51.426;6.972;2023-06-14T01:50:14;19.60;41.30
1878;DHT22;939;51.426;6.972;2023-06-14T01:52:42;19.50;41.60
1878;DHT22;939;51.426;6.972;2023-06-14T01:55:09;19.50;42.00
1878;DHT22;939;51.426;6.972;2023-06-14T01:57:37;19.50;41.60
1878;DHT22;939;51.426;6.972;2023-06-14T02:00:05;19.50;42.50
1878;DHT22;939;51.426;6.972;2023-06-14T02:02:36;19.40;43.30
1878;DHT22;939;51.426;6.972;2023-06-14T02:05:03;19.40;42.90
1878;DHT22;939;51.426;6.972;2023-06-14T02:07:30;19.30;43.30
1878;DHT22;939;51.426;6.972;2023-06-14T02:09:57;19.30;43.10
1878;DHT22;939;51.426;6.972;2023-06-14T02:12:24;19.30;42.90
1878;DHT22;939;51.426;6.972;2023-06-14T02:14:52;19.30;43.50
1878;DHT22;939;51.426;6.972;2023-06-14T02:17:19;19.30;42.80
1878;DHT22;939;51.426;6.972;2023-06-14T02:19:46;19.20;43.70
1878;DHT22;939;51.426;6.972;2023-06-14T02:22:14;19.20;44.10
1878;DHT22;939;51.426;6.972;2023-06-14T02:24:41;19.20;44.10
1878;DHT22;939;51.426;6.972;2023-06-14T02:27:08;19.20;44.20
1878;DHT22;939;51.426;6.972;2023-06-14T02:29:38;19.20;42.80
1878;DHT22;939;51.426;6.972;2023-06-14T02:32:07;19.20;42.80
1878;DHT22;939;51.426;6.972;2023-06-14T02:34:34;19.20;43.10
1878;DHT22;939;51.426;6.972;2023-06-14T02:37:01;19.20;43.90
1878;DHT22;939;51.426;6.972;2023-06-14T02:39:29;19.20;44.50
1878;DHT22;939;51.426;6.972;2023-06-14T02:41:56;19.20;43.70
1878;DHT22;939;51.426;6.972;2023-06-14T02:44:26;19.10;44.20
1878;DHT22;939;51.426;6.972;2023-06-14T02:46:53;19.10;45.00
1878;DHT22;939;51.426;6.972;2023-06-14T02:49:22;19.00;44.60
1878;DHT22;939;51.426;6.972;2023-06-14T02:51:49;19.00;46.60
1878;DHT22;939;51.426;6.972;2023-06-14T02:54:16;19.00;46.10
1878;DHT22;939;51.426;6.972;2023-06-14T02:56:43;19.00;46.10
1878;DHT22;939;51.426;6.972;2023-06-14T02:59:10;19.00;45.90
1878;DHT22;939;51.426;6.972;2023-06-14T03:01:39;19.00;46.10
1878;DHT22;939;51.426;6.972;2023-06-14T03:04:07;18.90;46.20
1878;DHT22;939;51.426;6.972;2023-06-14T07:41:19;20.40;49.30
1878;DHT22;939;51.426;6.972;2023-06-14T08:15:49;20.80;47.20
1878;DHT22;939;51.426;6.972;2023-06-14T08:18:34;20.80;47.20
1878;DHT22;939;51.426;6.972;2023-06-14T08:21:47;20.90;48.50
1878;DHT22;939;51.426;6.972;2023-06-14T08:24:59;20.80;49.50
1878;DHT22;939;51.426;6.972;2023-06-14T08:27:31;20.80;48.10
1878;DHT22;939;51.426;6.972;2023-06-14T08:41:04;20.80;46.00
1878;DHT22;939;51.426;6.972;2023-06-14T08:44:17;20.80;48.30
1878;DHT22;939;51.426;6.972;2023-06-14T21:29:40;20.50;48.90
1878;DHT22;939;51.426;6.972;2023-06-14T21:59:34;19.90;64.00
1878;DHT22;939;51.426;6.972;2023-06-14T22:02:01;19.90;69.70
1878;DHT22;939;51.426;6.972;2023-06-14T22:04:28;19.80;69.70
1878;DHT22;939;51.426;6.972;2023-06-14T22:06:55;19.80;68.90
1878;DHT22;939;51.426;6.972;2023-06-14T22:09:23;19.80;69.70
1878;DHT22;939;51.426;6.972;2023-06-14T22:11:51;19.70;70.70
1878;DHT22;939;51.426;6.972;2023-06-14T22:14:18;19.60;75.80
1878;DHT22;939;51.426;6.972;2023-06-14T22:16:48;19.60;75.10
1878;DHT22;939;51.426;6.972;2023-06-14T22:19:17;19.60;77.70
1878;DHT22;939;51.426;6.972;2023-06-14T22:21:44;19.60;81.40
1878;DHT22;939;51.426;6.972;2023-06-14T22:24:16;19.60;80.00
1878;DHT22;939;51.426;6.972;2023-06-14T22:26:45;19.50;85.40
1878;DHT22;939;51.426;6.972;2023-06-14T22:29:13;19.40;88.40
1878;DHT22;939;51.426;6.972;2023-06-14T22:31:42;19.40;86.70
1878;DHT22;939;51.426;6.972;2023-06-14T22:34:11;19.40;89.90
1878;DHT22;939;51.426;6.972;2023-06-14T22:36:38;19.30;90.00
1878;DHT22;939;51.426;6.972;2023-06-14T22:39:06;19.30;90.40
1878;DHT22;939;51.426;6.972;2023-06-14T22:41:34;19.30;90.70
1878;DHT22;939;51.426;6.972;2023-06-14T22:44:04;19.20;91.40
1878;DHT22;939;51.426;6.972;2023-06-14T22:46:31;19.20;92.60
1878;DHT22;939;51.426;6.972;2023-06-14T22:48:58;19.10;93.30
1878;DHT22;939;51.426;6.972;2023-06-14T22:51:28;19.10;94.00
1878;DHT22;939;51.426;6.972;2023-06-14T22:53:56;19.00;94.20
1878;DHT22;939;51.426;6.972;2023-06-14T22:56:23;19.00;95.50
1878;DHT22;939;51.426;6.972;2023-06-14T22:58:51;19.00;95.90
1878;DHT22;939;51.426;6.972;2023-06-14T23:01:19;18.90;96.20
1878;DHT22;939;51.426;6.972;2023-06-14T23:03:52;18.90;96.50
1878;DHT22;939;51.426;6.972;2023-06-14T23:06:19;18.80;96.90
1878;DHT22;939;51.426;6.972;2023-06-14T23:08:52;18.80;97.70
1878;DHT22;939;51.426;6.972;2023-06-14T23:11:22;18.80;97.30
1878;DHT22;939;51.426;6.972;2023-06-14T23:13:50;18.80;97.50
1878;DHT22;939;51.426;6.972;2023-06-14T23:16:19;18.70;97.80
1878;DHT22;939;51.426;6.972;2023-06-14T23:18:47;18.70;98.60
1878;DHT22;939;51.426;6.972;2023-06-14T23:21:17;18.70;98.90
1878;DHT22;939;51.426;6.972;2023-06-14T23:23:45;18.60;99.40
1878;DHT22;939;51.426;6.972;2023-06-14T23:26:14;18.70;99.40
1878;DHT22;939;51.426;6.972;2023-06-14T23:28:42;18.60;99.80
1878;DHT22;939;51.426;6.972;2023-06-14T23:31:11;18.60;99.90
1878;DHT22;939;51.426;6.972;2023-06-14T23:33:39;18.60;99.90
1878;DHT22;939;51.426;6.972;2023-06-14T23:36:06;18.60;99.90
1878;DHT22;939;51.426;6.972;2023-06-14T23:38:36;18.50;99.90
1878;DHT22;939;51.426;6.972;2023-06-14T23:41:08;18.40;99.90
1878;DHT22;939;51.426;6.972;2023-06-14T23:43:36;18.40;99.90
1878;DHT22;939;51.426;6.972;2023-06-14T23:46:07;18.40;99.90
1878;DHT22;939;51.426;6.972;2023-06-14T23:48:34;18.40;99.90
1878;DHT22;939;51.426;6.972;2023-06-14T23:51:01;18.40;99.90
1878;DHT22;939;51.426;6.972;2023-06-14T23:53:30;18.30;99.90
1878;DHT22;939;51.426;6.972;2023-06-14T23:55:58;18.40;99.90
1878;DHT22;939;51.426;6.972;2023-06-14T23:58:26;18.30;99.90
